Westonzoyland, United Kingdom
Current Conditions -  °F | °C
As of 5:50 PM on Tuesday 21 Oct 2014 (Local Time) from EGDY Reporting Station
Few Clouds Few Clouds  
Wind Chill: 52°   Ceiling: Unl
Heat Index: 52°   Visibility: 6mi
Dew Point: 36°   Wind: 25mph
Humidity: 54%   Direction: 290°WNW
Pressure: 30.03"   Gusts: 37mph
Location:  51.11°N, 2.93°W
Report Text: EGDY 211650Z 29022G32KT 9999 FEW012 FEW025CB 11/02 Q1017 BLU TEMPO 5000 SHRA SCT020CB WHT
Loading
Personal Weather Stations






























Interactive Weather Map
Tropical Storm Tracking
New forecast layout! Learn more

10-Day Weather Forecast

Advertisements
Track Severe Weather on mobile